»·PEaware :: N6VG KONT-KCRQ

N6VG :: KONT-KCRQ

FLIGHT INFORMATION

Flight Status: Arrived
Operator: Privately registered:
United States
More flights under this callsign
Pilot: John C. (9438)
Aircraft: CESSNA 182 SKYLANE
(C182)
More flights by this aircraft type
Origin: KONT Ontario Intl
United States
Destination: KCRQ McClellan-Palomar
United States
More flights between these airports :: More routes between these airports
Route: +SW
File this flight plan on PilotEdge
Remarks: Testing
Altitude:
(Current/Filed)
4,500ft
Speed:
(Current/Filed)
140kts
Departed: 24-Oct-19 07:43 AM
Arrived: 24-Oct-19 08:16 AM
Distance/Time
Traveled:
58nm/0:33
Distance/Time
To Go:
Arrived

Flight Plot

Page will automatically refresh every two minutes.

Flight plan parsing failed; only flown route is shown


Map Options




Map Legend


Flown Route
Filed Route
Departure Airport
Arrival Airport
Navaid (VOR, NDB)
Fix

Horizontal Profiles

Position Reports

Time Latitude Longitude Heading Altitude Ground
Speed
24-Oct-19 07:26 34.052429 -117.601014 234 948ft 0kts
24-Oct-19 07:28 34.052429 -117.601014 234 948ft 0kts
24-Oct-19 07:29 34.052429 -117.601014 234 948ft 0kts
24-Oct-19 07:30 34.052429 -117.601014 234 948ft 0kts
24-Oct-19 07:31 34.052429 -117.601014 234 948ft 0kts
24-Oct-19 07:32 34.052429 -117.601014 234 948ft 0kts
24-Oct-19 07:33 34.052143 -117.601156 144 948ft 4kts
24-Oct-19 07:34 34.052763 -117.601796 291 948ft 7kts
24-Oct-19 07:35 34.052879 -117.602022 309 948ft 0kts
24-Oct-19 07:36 34.052879 -117.602022 309 948ft 0kts
24-Oct-19 07:37 34.053915 -117.600374 88 948ft 17kts
24-Oct-19 07:38 34.053882 -117.592453 87 948ft 28kts
24-Oct-19 07:39 34.053875 -117.583101 85 948ft 13kts
24-Oct-19 07:40 34.054025 -117.582642 41 948ft 0kts
24-Oct-19 07:41 34.054025 -117.582642 41 948ft 0kts
24-Oct-19 07:42 34.055001 -117.583643 273 948ft 27kts
24-Oct-19 07:43 34.049834 -117.616989 248 1567ft 135kts
24-Oct-19 07:44 34.032244 -117.659957 246 2459ft 145kts
24-Oct-19 07:45 34.004877 -117.691545 173 3006ft 164kts
24-Oct-19 07:46 33.963293 -117.673072 132 3252ft 160kts
24-Oct-19 07:47 33.931055 -117.635470 132 3495ft 163kts
24-Oct-19 07:48 33.897767 -117.596464 132 3497ft 168kts
24-Oct-19 07:48 33.869572 -117.563642 133 3496ft 169kts
24-Oct-19 07:49 33.835639 -117.524440 132 3497ft 168kts
24-Oct-19 07:51 33.800519 -117.483793 131 3499ft 140kts
24-Oct-19 07:51 33.776949 -117.456910 131 3498ft 139kts
24-Oct-19 07:52 33.748906 -117.424871 132 3493ft 139kts
24-Oct-19 07:54 33.714327 -117.390711 140 3645ft 131kts
24-Oct-19 07:54 33.687868 -117.370870 143 3982ft 141kts
24-Oct-19 07:55 33.657760 -117.339268 131 4378ft 146kts
24-Oct-19 07:56 33.619187 -117.323345 174 4780ft 157kts
24-Oct-19 07:57 33.575284 -117.318927 172 5190ft 159kts
24-Oct-19 07:58 33.532393 -117.306254 162 5489ft 164kts
24-Oct-19 07:59 33.488129 -117.288637 152 5481ft 166kts
24-Oct-19 08:00 33.449551 -117.268227 152 5475ft 162kts
24-Oct-19 08:01 33.418088 -117.251511 152 5472ft 161kts
24-Oct-19 08:02 33.376896 -117.229634 152 5473ft 161kts
24-Oct-19 08:03 33.349294 -117.215068 152 5474ft 161kts
24-Oct-19 08:04 33.308004 -117.193368 152 5473ft 162kts
24-Oct-19 08:05 33.266641 -117.171762 149 5472ft 162kts
24-Oct-19 08:06 33.229322 -117.142808 142 5473ft 160kts
24-Oct-19 08:07 33.192048 -117.113746 141 5474ft 160kts
24-Oct-19 08:08 33.154728 -117.084954 145 5488ft 160kts
24-Oct-19 08:09 33.129067 -117.117867 261 5177ft 148kts
24-Oct-19 08:10 33.132247 -117.157967 319 3532ft 130kts
24-Oct-19 08:11 33.155607 -117.185439 282 1918ft 125kts
24-Oct-19 08:12 33.142179 -117.217161 234 918ft 94kts
24-Oct-19 08:13 33.133995 -117.241863 269 969ft 87kts
24-Oct-19 08:14 33.129898 -117.269507 263 426ft 72kts
24-Oct-19 08:15 33.127190 -117.282707 148 337ft 9kts
24-Oct-19 08:16 33.127273 -117.279477 74 337ft 0kts
24-Oct-19 08:17 33.127273 -117.279478 74 337ft 0kts
24-Oct-19 08:18 33.127273 -117.279478 74 337ft 0kts
24-Oct-19 08:19 33.127273 -117.279478 74 337ft 0kts
24-Oct-19 08:20 33.127273 -117.279478 74 337ft 0kts
24-Oct-19 08:21 33.127273 -117.279478 74 337ft 0kts
24-Oct-19 08:22 33.127273 -117.279478 74 337ft 0kts
24-Oct-19 08:23 33.127273 -117.279478 74 337ft 0kts
24-Oct-19 08:24 33.127273 -117.279478 74 337ft 0kts
24-Oct-19 08:25 33.127273 -117.279478 74 337ft 0kts
24-Oct-19 08:26 33.127273 -117.279478 74 337ft 0kts
24-Oct-19 08:27 33.127273 -117.279478 74 337ft 0kts
24-Oct-19 08:28 33.127273 -117.279478 74 337ft 0kts
24-Oct-19 08:29 33.127273 -117.279478 74 337ft 0kts

Navigation Log

Ident Type
Flight plan parsing failed, navigation log unavailable